createdAt,value
2022-09-07T00:00:57.074Z,23.74
2022-09-07T00:03:24.176Z,23.56
2022-09-07T00:05:51.933Z,23.58
2022-09-07T00:08:22.492Z,23.80
2022-09-07T00:10:56.099Z,23.84
2022-09-07T00:13:24.529Z,23.86
2022-09-07T00:15:51.280Z,23.66
2022-09-07T00:18:18.056Z,23.63
2022-09-07T00:20:44.745Z,23.53
2022-09-07T00:23:11.745Z,23.57
2022-09-07T00:25:39.743Z,23.66
2022-09-07T00:28:08.016Z,23.62
2022-09-07T00:30:40.293Z,23.53
2022-09-07T00:33:06.799Z,23.64
2022-09-07T00:35:33.346Z,23.93
2022-09-07T00:37:59.820Z,23.81
2022-09-07T00:40:26.470Z,23.67
2022-09-07T00:42:52.976Z,23.75
2022-09-07T00:45:21.415Z,23.46
2022-09-07T00:47:51.002Z,23.68
2022-09-07T00:50:38.104Z,23.76
2022-09-07T00:53:19.679Z,23.71
2022-09-07T00:55:49.325Z,23.73
2022-09-07T00:58:17.098Z,23.74
2022-09-07T01:00:46.291Z,23.69
2022-09-07T01:03:15.063Z,23.65
2022-09-07T01:05:46.454Z,23.63
2022-09-07T01:08:14.016Z,23.45
2022-09-07T01:10:40.782Z,23.14
2022-09-07T01:13:07.755Z,23.00
2022-09-07T01:15:57.968Z,22.93
2022-09-07T01:18:29.207Z,22.70
2022-09-07T01:21:13.675Z,22.42
2022-09-07T01:24:24.540Z,22.39
2022-09-07T01:27:18.923Z,22.39
2022-09-07T01:29:57.508Z,22.14
2022-09-07T01:32:55.062Z,22.12
2022-09-07T01:35:34.258Z,22.08
2022-09-07T01:38:27.558Z,22.07
2022-09-07T01:41:16.555Z,21.89
2022-09-07T01:43:47.377Z,21.90
2022-09-07T01:46:46.159Z,22.09
2022-09-07T01:49:22.668Z,21.97
2022-09-07T01:51:55.746Z,21.93
2022-09-07T01:54:38.188Z,21.73
2022-09-07T01:57:13.385Z,21.71
2022-09-07T01:59:45.426Z,21.70
2022-09-07T02:02:17.519Z,21.73
2022-09-07T02:04:57.146Z,21.78
2022-09-07T02:07:53.138Z,21.72
2022-09-07T02:10:27.500Z,21.47
2022-09-07T02:13:56.652Z,21.55
2022-09-07T02:16:25.827Z,21.56
2022-09-07T02:18:59.911Z,21.59
2022-09-07T02:21:33.737Z,21.56
2022-09-07T02:24:18.101Z,21.17
2022-09-07T02:26:49.449Z,21.16
2022-09-07T02:29:15.976Z,20.98
2022-09-07T02:31:42.539Z,21.11
2022-09-07T02:34:09.189Z,21.13
2022-09-07T02:36:44.401Z,21.24
2022-09-07T02:39:10.952Z,21.26
2022-09-07T02:41:39.538Z,21.24
2022-09-07T02:44:14.170Z,21.35
2022-09-07T02:46:57.449Z,21.27
2022-09-07T02:49:39.384Z,21.41
2022-09-07T02:52:30.413Z,21.36
2022-09-07T02:55:28.127Z,21.28
2022-09-07T02:58:35.214Z,21.34
2022-09-07T03:01:10.949Z,21.20
2022-09-07T03:04:09.750Z,21.30
2022-09-07T03:06:43.724Z,21.18
2022-09-07T03:09:16.418Z,21.07
2022-09-07T03:11:43.106Z,21.13
2022-09-07T03:14:17.444Z,20.88
2022-09-07T03:16:44.458Z,20.98
2022-09-07T03:19:11.050Z,20.91
2022-09-07T03:21:37.565Z,20.98
2022-09-07T03:24:04.461Z,20.92
2022-09-07T03:26:30.979Z,20.53
2022-09-07T03:28:57.511Z,20.58
2022-09-07T03:31:24.148Z,20.53
2022-09-07T03:33:50.696Z,20.66
2022-09-07T03:36:17.257Z,20.58
2022-09-07T03:38:44.169Z,20.18
2022-09-07T03:41:10.722Z,20.47
2022-09-07T03:43:37.197Z,20.25
2022-09-07T03:46:06.139Z,19.91
2022-09-07T03:48:34.763Z,19.89
2022-09-07T03:51:04.166Z,20.20
2022-09-07T03:53:39.122Z,20.41
2022-09-07T03:56:09.106Z,20.42
2022-09-07T03:58:36.625Z,19.99
2022-09-07T04:01:08.845Z,20.08
2022-09-07T04:03:35.838Z,20.09
2022-09-07T04:06:03.511Z,20.01
2022-09-07T04:08:32.382Z,20.09
2022-09-07T04:11:01.017Z,20.29
2022-09-07T04:13:29.078Z,20.42
2022-09-07T04:15:56.247Z,20.54
2022-09-07T04:18:23.649Z,20.54
2022-09-07T04:20:51.070Z,20.40
2022-09-07T04:23:20.794Z,20.51
2022-09-07T04:25:52.171Z,20.50
2022-09-07T04:28:20.867Z,20.58
2022-09-07T04:30:47.840Z,20.38
2022-09-07T04:33:15.428Z,20.51
2022-09-07T04:35:43.350Z,20.48
2022-09-07T04:38:15.221Z,20.55
2022-09-07T04:40:42.068Z,20.51
2022-09-07T04:43:09.582Z,20.35
2022-09-07T04:45:37.226Z,20.13
2022-09-07T04:48:04.594Z,20.03
2022-09-07T04:50:31.730Z,20.13
2022-09-07T04:52:58.210Z,19.96
2022-09-07T04:55:24.765Z,19.97
2022-09-07T04:57:51.316Z,20.02
2022-09-07T05:00:18.105Z,20.07
2022-09-07T05:02:44.728Z,20.05
2022-09-07T05:05:11.323Z,19.89
2022-09-07T05:07:37.874Z,19.81
2022-09-07T05:10:04.790Z,19.88
2022-09-07T05:12:31.534Z,19.91
2022-09-07T05:14:58.045Z,19.85
2022-09-07T05:17:24.700Z,19.85
2022-09-07T05:19:51.235Z,20.06
2022-09-07T05:22:17.869Z,20.00
2022-09-07T05:24:44.556Z,20.07
2022-09-07T05:27:11.171Z,20.14
2022-09-07T05:32:24.274Z,20.09
2022-09-07T05:34:52.882Z,20.14
2022-09-07T05:37:19.949Z,20.19
2022-09-07T05:39:46.848Z,20.07
2022-09-07T05:42:13.736Z,20.09
2022-09-07T05:47:09.659Z,20.04
2022-09-07T05:49:36.230Z,19.74
2022-09-07T05:52:03.034Z,19.93
2022-09-07T05:54:29.575Z,19.80
2022-09-07T05:56:56.076Z,19.49
2022-09-07T05:59:22.621Z,19.52
2022-09-07T06:01:49.237Z,19.35
2022-09-07T06:04:15.844Z,19.71
2022-09-07T06:06:47.805Z,20.00
2022-09-07T06:09:29.852Z,20.00
2022-09-07T06:11:57.212Z,19.77
2022-09-07T06:14:23.786Z,19.75
2022-09-07T06:16:50.655Z,19.91
2022-09-07T06:19:17.172Z,19.98
2022-09-07T06:21:43.691Z,20.13
2022-09-07T06:24:10.247Z,19.97
2022-09-07T06:26:36.779Z,20.00
2022-09-07T06:29:03.830Z,20.14
2022-09-07T06:31:30.719Z,20.20
2022-09-07T06:33:57.444Z,20.21
2022-09-07T06:36:27.263Z,20.05
2022-09-07T06:38:58.848Z,20.00
2022-09-07T06:44:16.578Z,20.20
2022-09-07T06:49:29.595Z,20.46
2022-09-07T06:51:56.174Z,20.54
2022-09-07T06:57:09.860Z,20.67
2022-09-07T06:59:37.326Z,20.87
2022-09-07T07:02:15.417Z,20.79
2022-09-07T07:04:44.179Z,20.80
2022-09-07T07:07:12.407Z,20.74
2022-09-07T07:09:39.618Z,20.89
2022-09-07T07:12:06.298Z,21.02
2022-09-07T07:14:34.653Z,21.12
2022-09-07T07:17:02.808Z,21.23
2022-09-07T07:19:29.482Z,21.26
2022-09-07T07:24:42.668Z,21.33
2022-09-07T07:27:09.149Z,21.34
2022-09-07T07:29:35.696Z,21.43
2022-09-07T07:32:02.455Z,21.49
2022-09-07T07:34:29.335Z,21.53
2022-09-07T07:36:55.840Z,21.52
2022-09-07T07:42:09.114Z,21.67
2022-09-07T07:44:35.652Z,21.61
2022-09-07T07:47:02.696Z,21.73
2022-09-07T07:49:29.230Z,21.83
2022-09-07T07:54:43.274Z,22.06
2022-09-07T07:57:10.323Z,22.23
2022-09-07T07:59:37.027Z,22.11
2022-09-07T08:02:09.071Z,22.46
2022-09-07T08:04:36.020Z,22.57
2022-09-07T08:07:09.259Z,22.71
2022-09-07T08:09:44.247Z,22.87
2022-09-07T08:12:19.341Z,23.00
2022-09-07T08:14:47.957Z,23.08
2022-09-07T08:17:17.538Z,23.12
2022-09-07T08:19:44.937Z,23.01
2022-09-07T08:22:12.496Z,22.98
2022-09-07T08:24:39.210Z,23.17
2022-09-07T08:27:05.755Z,23.30
2022-09-07T08:29:34.580Z,23.28
2022-09-07T08:32:02.600Z,23.39
2022-09-07T08:34:29.082Z,23.42
2022-09-07T08:36:55.595Z,23.43
2022-09-07T08:39:22.032Z,23.60
2022-09-07T08:42:09.760Z,23.77
2022-09-07T08:44:51.017Z,23.64
2022-09-07T08:47:32.100Z,23.43
2022-09-07T08:50:13.583Z,23.36
2022-09-07T08:53:03.110Z,23.43
2022-09-07T08:55:38.709Z,23.34
2022-09-07T08:58:48.345Z,23.34
2022-09-07T09:01:36.521Z,23.42
2022-09-07T09:04:21.301Z,23.48
2022-09-07T09:07:10.361Z,23.44
2022-09-07T09:09:49.079Z,23.61
2022-09-07T09:12:36.827Z,23.70
2022-09-07T09:15:17.856Z,23.53
2022-09-07T09:18:08.138Z,23.53
2022-09-07T09:20:48.391Z,23.61
2022-09-07T09:23:16.287Z,23.62
2022-09-07T09:25:50.992Z,23.66
2022-09-07T09:28:17.874Z,23.53
2022-09-07T09:30:44.282Z,23.50
2022-09-07T09:33:21.673Z,23.43
2022-09-07T09:35:50.849Z,23.44
2022-09-07T09:38:29.484Z,23.56
2022-09-07T09:40:59.609Z,23.45
2022-09-07T09:43:32.381Z,23.38
2022-09-07T09:46:15.893Z,23.64
2022-09-07T09:48:42.737Z,23.64
2022-09-07T09:54:07.661Z,23.80
2022-09-07T09:56:43.141Z,23.79
2022-09-07T10:05:35.900Z,23.61
2022-09-07T10:08:14.701Z,23.69
2022-09-07T10:11:03.902Z,23.96
2022-09-07T10:13:42.532Z,23.89
2022-09-07T10:16:10.562Z,23.97
2022-09-07T10:18:59.429Z,23.88
2022-09-07T10:21:32.258Z,24.07
2022-09-07T10:23:59.918Z,24.14
2022-09-07T10:26:28.434Z,24.36
2022-09-07T10:29:28.696Z,24.42
2022-09-07T10:32:07.318Z,24.62
2022-09-07T10:35:01.426Z,24.58
2022-09-07T10:37:31.441Z,24.65
2022-09-07T10:40:25.049Z,24.71
2022-09-07T10:45:59.654Z,24.04
2022-09-07T10:48:54.462Z,24.50
2022-09-07T10:51:37.732Z,23.93
2022-09-07T10:54:52.272Z,24.41
2022-09-07T10:57:37.116Z,24.86
2022-09-07T11:00:14.515Z,25.00
2022-09-07T11:03:27.369Z,25.18
2022-09-07T11:06:22.032Z,25.58
2022-09-07T11:12:20.769Z,25.70
2022-09-07T11:15:12.814Z,25.97
2022-09-07T11:17:53.002Z,25.82
2022-09-07T11:20:26.227Z,25.92
2022-09-07T11:23:04.466Z,26.00
2022-09-07T11:25:40.975Z,26.14
2022-09-07T11:28:24.195Z,25.95
2022-09-07T11:31:00.024Z,26.15
2022-09-07T11:33:34.339Z,26.09
2022-09-07T11:36:16.286Z,26.17
2022-09-07T11:38:52.144Z,25.78
2022-09-07T11:41:31.698Z,25.92
2022-09-07T11:44:04.424Z,25.91
2022-09-07T11:46:42.254Z,26.21
2022-09-07T11:49:20.372Z,26.29
2022-09-07T11:51:53.923Z,25.90
2022-09-07T11:54:48.725Z,26.05
2022-09-07T11:57:15.633Z,25.91
2022-09-07T12:00:10.945Z,25.99
2022-09-07T12:03:06.752Z,25.93
2022-09-07T12:05:45.115Z,25.79
2022-09-07T12:08:36.506Z,25.66
2022-09-07T12:11:21.348Z,25.67
2022-09-07T12:14:18.872Z,25.59
2022-09-07T12:17:08.306Z,25.78
2022-09-07T12:19:35.231Z,25.75
2022-09-07T12:22:01.929Z,25.82
2022-09-07T12:24:42.239Z,25.69
2022-09-07T12:27:22.066Z,25.49
2022-09-07T12:29:57.852Z,25.44
2022-09-07T12:32:58.182Z,25.86
2022-09-07T12:35:28.620Z,26.14
2022-09-07T12:38:03.167Z,26.58
2022-09-07T12:40:29.713Z,26.59
2022-09-07T12:43:14.479Z,26.56
2022-09-07T12:45:41.560Z,26.72
2022-09-07T12:48:16.789Z,26.64
2022-09-07T12:51:02.298Z,26.60
2022-09-07T12:53:56.972Z,26.96
2022-09-07T12:56:43.176Z,27.06
2022-09-07T12:59:29.498Z,26.66
2022-09-07T13:02:33.039Z,26.71
2022-09-07T13:05:34.037Z,27.02
2022-09-07T13:08:16.042Z,27.09
2022-09-07T13:10:43.642Z,26.91
2022-09-07T13:13:16.063Z,26.92
2022-09-07T13:15:51.626Z,27.01
2022-09-07T13:18:27.297Z,26.91
2022-09-07T13:21:08.831Z,26.27
2022-09-07T13:23:37.892Z,26.81
2022-09-07T13:26:06.913Z,26.83
2022-09-07T13:28:40.333Z,26.76
2022-09-07T13:31:19.383Z,26.47
2022-09-07T13:33:48.682Z,26.71
2022-09-07T13:36:25.738Z,27.00
2022-09-07T13:38:53.795Z,27.20
2022-09-07T13:41:34.753Z,27.46
2022-09-07T13:44:03.789Z,27.64
2022-09-07T13:46:47.146Z,27.74
2022-09-07T13:49:25.553Z,27.90
2022-09-07T13:52:04.177Z,27.74
2022-09-07T13:54:37.059Z,27.38
2022-09-07T13:57:25.766Z,27.36
2022-09-07T13:59:52.595Z,27.46
2022-09-07T14:02:35.438Z,27.50
2022-09-07T14:05:02.967Z,27.36
2022-09-07T14:07:31.415Z,27.23
2022-09-07T14:10:28.198Z,26.70
2022-09-07T14:13:15.019Z,26.74
2022-09-07T14:15:44.461Z,26.94
2022-09-07T14:18:12.249Z,27.23
2022-09-07T14:20:46.144Z,27.05
2022-09-07T14:23:19.264Z,27.10
2022-09-07T14:28:37.184Z,27.05
2022-09-07T14:31:05.821Z,27.05
2022-09-07T14:33:32.858Z,26.99
2022-09-07T14:35:59.558Z,26.90
2022-09-07T14:41:19.402Z,27.34
2022-09-07T14:43:56.767Z,27.49
2022-09-07T14:46:27.612Z,27.61
2022-09-07T14:49:00.176Z,27.59
2022-09-07T14:51:36.095Z,27.89
2022-09-07T14:54:07.738Z,27.88
2022-09-07T14:56:41.904Z,27.71
2022-09-07T14:59:34.836Z,27.77
2022-09-07T15:02:19.843Z,27.88
2022-09-07T15:04:47.405Z,27.84
2022-09-07T15:07:36.665Z,27.71
2022-09-07T15:10:23.254Z,27.78
2022-09-07T15:13:00.122Z,27.74
2022-09-07T15:15:41.119Z,27.91
2022-09-07T15:18:42.820Z,27.07
2022-09-07T15:21:09.241Z,27.16
2022-09-07T15:23:35.654Z,27.17
2022-09-07T15:26:02.386Z,27.20
2022-09-07T15:34:20.542Z,26.86
2022-09-07T15:36:52.483Z,26.79
2022-09-07T15:39:25.280Z,26.77
2022-09-07T15:41:52.754Z,26.59
2022-09-07T15:44:22.985Z,26.38
2022-09-07T15:49:40.119Z,26.28
2022-09-07T15:52:08.572Z,26.33
2022-09-07T15:54:37.078Z,26.47
2022-09-07T15:59:52.262Z,26.33
2022-09-07T16:05:07.780Z,26.18
2022-09-07T16:10:21.314Z,26.07
2022-09-07T16:13:10.511Z,26.09
2022-09-07T16:15:34.663Z,26.13
2022-09-07T16:18:02.212Z,25.66
2022-09-07T16:20:31.921Z,25.64
2022-09-07T16:23:15.507Z,25.65
2022-09-07T16:25:43.371Z,25.68
2022-09-07T16:28:10.898Z,25.79
2022-09-07T16:30:40.662Z,25.53
2022-09-07T16:33:07.521Z,25.40
2022-09-07T16:35:34.267Z,25.72
2022-09-07T16:40:50.090Z,25.96
2022-09-07T16:43:17.001Z,25.98
2022-09-07T16:48:31.406Z,25.54
2022-09-07T16:51:01.906Z,25.51
2022-09-07T16:53:31.801Z,25.35
2022-09-07T16:56:06.972Z,25.52
2022-09-07T16:58:36.725Z,25.76
2022-09-07T17:01:07.819Z,25.82
2022-09-07T17:03:35.548Z,25.83
2022-09-07T17:06:03.532Z,25.76
2022-09-07T17:08:30.093Z,25.91
2022-09-07T17:11:10.594Z,25.88
2022-09-07T17:13:38.813Z,25.99
2022-09-07T17:16:33.051Z,26.07
2022-09-07T17:21:51.739Z,25.59
2022-09-07T17:24:19.678Z,25.72
2022-09-07T17:26:46.357Z,25.68
2022-09-07T17:29:13.067Z,25.77
2022-09-07T17:34:26.723Z,25.73
2022-09-07T17:36:53.278Z,25.70
2022-09-07T17:39:20.012Z,25.62
2022-09-07T17:41:52.604Z,25.37
2022-09-07T17:44:19.382Z,25.32
2022-09-07T17:46:46.198Z,25.07
2022-09-07T17:49:14.491Z,25.23
2022-09-07T17:51:41.357Z,25.07
2022-09-07T17:54:11.569Z,25.13
2022-09-07T17:56:40.108Z,25.11
2022-09-07T18:01:56.549Z,25.08
2022-09-07T18:04:23.799Z,25.03
2022-09-07T18:06:51.019Z,25.03
2022-09-07T18:09:19.494Z,24.98
2022-09-07T18:11:47.688Z,24.84
2022-09-07T18:14:15.456Z,24.80
2022-09-07T18:16:43.240Z,24.87
2022-09-07T18:19:11.658Z,24.83
2022-09-07T18:21:41.026Z,24.88
2022-09-07T18:24:13.571Z,24.86
2022-09-07T18:26:40.951Z,24.62
2022-09-07T18:29:25.833Z,24.60
2022-09-07T18:31:54.215Z,24.57
2022-09-07T18:34:20.869Z,24.52
2022-09-07T18:36:47.481Z,24.54
2022-09-07T18:39:14.051Z,24.57
2022-09-07T18:41:40.845Z,24.42
2022-09-07T18:45:27.342Z,24.29
2022-09-07T18:46:54.183Z,23.98
2022-09-07T18:49:20.830Z,23.88
2022-09-07T18:54:33.742Z,23.92
2022-09-07T18:57:00.427Z,24.00
2022-09-07T18:59:26.936Z,24.01
2022-09-07T19:01:54.119Z,24.04
2022-09-07T19:04:21.597Z,23.93
2022-09-07T19:06:48.102Z,23.75
2022-09-07T19:09:14.587Z,23.74
2022-09-07T19:11:42.283Z,23.73
2022-09-07T19:14:09.089Z,23.65
2022-09-07T19:16:36.731Z,23.43
2022-09-07T19:19:06.402Z,23.32
2022-09-07T19:21:35.734Z,23.19
2022-09-07T19:24:06.465Z,23.21
2022-09-07T19:26:35.737Z,23.13
2022-09-07T19:29:04.315Z,23.21
2022-09-07T19:31:31.611Z,23.17
2022-09-07T19:33:59.903Z,23.14
2022-09-07T19:36:30.501Z,22.90
2022-09-07T19:38:57.193Z,22.94
2022-09-07T19:41:23.904Z,22.76
2022-09-07T19:43:50.646Z,22.61
2022-09-07T19:46:22.728Z,22.48
2022-09-07T19:48:51.285Z,22.48
2022-09-07T19:51:18.017Z,22.50
2022-09-07T19:53:46.689Z,22.42
2022-09-07T19:56:15.914Z,22.39
2022-09-07T19:58:43.870Z,22.12
2022-09-07T20:01:17.120Z,22.12
2022-09-07T20:03:46.619Z,21.91
2022-09-07T20:06:14.721Z,21.62
2022-09-07T20:08:42.626Z,21.68
2022-09-07T20:11:11.872Z,21.76
2022-09-07T20:13:39.375Z,21.78
2022-09-07T20:16:11.310Z,21.86
2022-09-07T20:18:38.301Z,21.96
2022-09-07T20:21:06.618Z,21.97
2022-09-07T20:23:34.857Z,22.00
2022-09-07T20:26:04.195Z,22.00
2022-09-07T20:28:31.170Z,21.95
2022-09-07T20:30:57.853Z,22.00
2022-09-07T20:33:24.667Z,21.79
2022-09-07T20:35:51.572Z,21.84
2022-09-07T20:38:21.003Z,21.88
2022-09-07T20:40:54.538Z,21.89
2022-09-07T20:43:21.663Z,21.95
2022-09-07T20:45:48.269Z,21.91
2022-09-07T20:48:15.234Z,21.65
2022-09-07T20:50:42.009Z,21.43
2022-09-07T20:53:08.797Z,21.20
2022-09-07T20:55:35.953Z,21.06
2022-09-07T20:58:03.058Z,21.18
2022-09-07T21:00:29.585Z,21.28
2022-09-07T21:02:56.583Z,21.39
2022-09-07T21:05:23.029Z,21.43
2022-09-07T21:07:49.472Z,21.40
2022-09-07T21:10:15.970Z,21.15
2022-09-07T21:12:42.498Z,21.16
2022-09-07T21:15:09.798Z,21.13
2022-09-07T21:17:36.265Z,21.18
2022-09-07T21:20:03.105Z,20.94
2022-09-07T21:22:30.800Z,20.87
2022-09-07T21:24:57.270Z,20.79
2022-09-07T21:27:24.216Z,20.86
2022-09-07T21:29:51.081Z,20.96
2022-09-07T21:32:17.559Z,20.85
2022-09-07T21:34:43.986Z,20.91
2022-09-07T21:37:10.407Z,21.00
2022-09-07T21:39:37.043Z,21.07
2022-09-07T21:42:04.384Z,20.90
2022-09-07T21:44:30.801Z,20.85
2022-09-07T21:46:57.347Z,20.56
2022-09-07T21:49:23.861Z,20.50
2022-09-07T21:51:50.252Z,20.53
2022-09-07T21:54:16.707Z,20.63
2022-09-07T21:56:46.499Z,20.51
2022-09-07T21:59:13.875Z,20.51
2022-09-07T22:01:40.812Z,19.90
2022-09-07T22:04:07.443Z,19.83
2022-09-07T22:06:34.717Z,20.02
2022-09-07T22:09:02.214Z,20.12
2022-09-07T22:11:29.480Z,20.15
2022-09-07T22:13:58.090Z,20.24
2022-09-07T22:16:25.181Z,20.12
2022-09-07T22:18:52.292Z,19.99
2022-09-07T22:21:21.883Z,20.00
2022-09-07T22:23:51.173Z,20.16
2022-09-07T22:26:20.572Z,20.19
2022-09-07T22:28:46.925Z,20.25
2022-09-07T22:31:22.468Z,20.18
2022-09-07T22:33:50.976Z,20.09
2022-09-07T22:36:20.546Z,19.95
2022-09-07T22:38:49.634Z,20.06
2022-09-07T22:41:19.118Z,19.99
2022-09-07T22:43:46.068Z,19.90
2022-09-07T22:46:13.800Z,19.74
2022-09-07T22:48:41.317Z,19.75
2022-09-07T22:51:08.774Z,19.85
2022-09-07T22:53:37.144Z,19.98
2022-09-07T22:56:18.491Z,20.06
2022-09-07T22:58:47.217Z,20.00
2022-09-07T23:01:13.818Z,19.86
2022-09-07T23:03:40.356Z,19.69
2022-09-07T23:06:06.966Z,19.77
2022-09-07T23:08:33.384Z,19.74
2022-09-07T23:11:05.103Z,19.77
2022-09-07T23:13:32.874Z,19.80
2022-09-07T23:16:04.605Z,19.82
2022-09-07T23:18:31.540Z,19.86
2022-09-07T23:21:02.258Z,19.80
2022-09-07T23:23:29.480Z,19.83
2022-09-07T23:25:55.966Z,19.80
2022-09-07T23:28:22.521Z,19.80
2022-09-07T23:30:50.738Z,19.85
2022-09-07T23:33:17.690Z,19.81
2022-09-07T23:35:54.685Z,19.79
2022-09-07T23:38:21.522Z,19.69
2022-09-07T23:40:48.085Z,19.81
2022-09-07T23:43:14.649Z,19.78
2022-09-07T23:45:41.042Z,19.84
2022-09-07T23:48:07.555Z,19.85
2022-09-07T23:50:34.013Z,19.82
2022-09-07T23:53:00.666Z,19.59
2022-09-07T23:55:27.140Z,19.59
2022-09-07T23:57:53.569Z,19.70
